createdAt,value
2022-09-05T00:00:41.778Z,5.50
2022-09-05T00:03:33.877Z,5.50
2022-09-05T00:06:16.911Z,5.28
2022-09-05T00:09:25.729Z,5.68
2022-09-05T00:12:17.785Z,5.72
2022-09-05T00:15:19.730Z,6.22
2022-09-05T00:24:17.776Z,5.65
2022-09-05T00:24:27.353Z,5.85
2022-09-05T00:25:34.989Z,4.93
2022-09-05T00:28:49.786Z,5.25
2022-09-05T00:31:57.418Z,4.93
2022-09-05T00:35:12.740Z,5.10
2022-09-05T00:38:04.735Z,5.40
2022-09-05T00:40:58.726Z,5.57
2022-09-05T00:43:42.789Z,5.05
2022-09-05T00:46:42.790Z,4.88
2022-09-05T00:49:38.724Z,4.80
2022-09-05T00:53:06.262Z,4.95
2022-09-05T00:56:11.773Z,5.03
2022-09-05T00:59:37.757Z,5.22
2022-09-05T01:03:02.753Z,5.20
2022-09-05T01:05:53.742Z,5.75
2022-09-05T01:09:15.795Z,6.03
2022-09-05T01:12:24.741Z,4.93
2022-09-05T01:15:37.834Z,5.85
2022-09-05T01:18:38.749Z,6.32
2022-09-05T01:21:53.309Z,5.80
2022-09-05T01:24:57.751Z,6.22
2022-09-05T01:31:10.789Z,5.68
2022-09-05T01:33:57.865Z,5.80
2022-09-05T01:37:33.544Z,6.00
2022-09-05T01:40:34.542Z,6.78
2022-09-05T01:43:45.722Z,5.32
2022-09-05T01:46:41.780Z,6.18
2022-09-05T01:49:34.798Z,6.13
2022-09-05T01:52:37.747Z,6.50
2022-09-05T01:56:04.454Z,6.18
2022-09-05T01:59:20.745Z,6.60
2022-09-05T02:02:50.338Z,6.82
2022-09-05T02:06:09.036Z,5.93
2022-09-05T02:09:09.738Z,6.47
2022-09-05T02:11:57.999Z,6.40
2022-09-05T02:14:57.734Z,6.47
2022-09-05T02:17:50.867Z,5.97
2022-09-05T02:20:51.743Z,6.28
2022-09-05T02:23:48.845Z,6.10
2022-09-05T02:26:45.732Z,6.53
2022-09-05T02:30:09.753Z,6.55
2022-09-05T02:33:27.839Z,6.80
2022-09-05T02:36:31.752Z,6.63
2022-09-05T02:45:02.920Z,6.28
2022-09-05T02:45:21.087Z,5.70
2022-09-05T02:45:56.909Z,6.22
2022-09-05T02:48:46.739Z,6.07
2022-09-05T02:57:23.389Z,6.53
2022-09-05T02:57:32.898Z,6.53
2022-09-05T02:58:07.060Z,6.93
2022-09-05T03:01:07.792Z,6.53
2022-09-05T03:04:09.857Z,6.72
2022-09-05T03:07:07.737Z,7.70
2022-09-05T03:10:02.759Z,6.93
2022-09-05T03:13:17.741Z,6.55
2022-09-05T03:16:23.810Z,7.68
2022-09-05T03:19:26.765Z,7.18
2022-09-05T03:22:22.711Z,6.70
2022-09-05T03:25:31.749Z,6.70
2022-09-05T03:28:49.757Z,6.97
2022-09-05T03:32:04.741Z,6.40
2022-09-05T03:34:57.816Z,7.05
2022-09-05T03:38:25.836Z,7.30
2022-09-05T03:41:18.813Z,6.95
2022-09-05T03:44:49.763Z,7.07
2022-09-05T03:48:28.756Z,7.63
2022-09-05T03:57:12.028Z,7.35
2022-09-05T03:57:25.424Z,7.18
2022-09-05T03:58:22.706Z,7.25
2022-09-05T04:05:12.479Z,7.85
2022-09-05T04:08:13.432Z,7.55
2022-09-05T04:08:38.590Z,7.93
2022-09-05T04:11:51.758Z,7.72
2022-09-05T04:14:58.818Z,7.45
2022-09-05T04:18:03.776Z,8.15
2022-09-05T04:24:13.757Z,7.93
2022-09-05T04:27:06.774Z,7.35
2022-09-05T04:30:38.864Z,7.90
2022-09-05T04:33:15.005Z,8.35
2022-09-05T04:36:29.797Z,8.88
2022-09-05T04:39:31.810Z,8.07
2022-09-05T04:42:33.806Z,8.48
2022-09-05T04:45:24.282Z,9.02
2022-09-05T04:48:20.127Z,8.75
2022-09-05T04:51:13.249Z,9.02
2022-09-05T04:54:30.062Z,9.98
2022-09-05T04:57:42.748Z,9.20
2022-09-05T05:06:02.966Z,9.32
2022-09-05T05:06:17.109Z,9.95
2022-09-05T05:07:39.865Z,9.80
2022-09-05T05:14:16.175Z,10.07
2022-09-05T05:17:55.976Z,9.48
2022-09-05T05:18:07.039Z,10.00
2022-09-05T05:20:43.966Z,10.07
2022-09-05T05:23:47.773Z,9.75
2022-09-05T05:26:43.790Z,10.60
2022-09-05T05:29:52.772Z,9.73
2022-09-05T05:32:46.005Z,9.43
2022-09-05T05:35:48.040Z,10.25
2022-09-05T05:38:33.854Z,9.75
2022-09-05T05:41:27.806Z,9.35
2022-09-05T05:44:17.814Z,10.05
2022-09-05T05:47:31.332Z,10.50
2022-09-05T05:50:41.766Z,9.82
2022-09-05T05:53:52.220Z,9.50
2022-09-05T05:56:53.757Z,9.50
2022-09-05T06:00:27.970Z,8.63
2022-09-05T06:03:34.803Z,9.40
2022-09-05T06:06:21.950Z,8.25
2022-09-05T06:14:51.884Z,8.95
2022-09-05T06:14:55.646Z,8.63
2022-09-05T06:16:06.366Z,9.50
2022-09-05T06:19:23.810Z,9.63
2022-09-05T06:22:30.880Z,9.48
2022-09-05T06:26:04.789Z,9.05
2022-09-05T06:29:17.842Z,9.30
2022-09-05T06:32:18.831Z,8.30
2022-09-05T06:35:21.813Z,8.75
2022-09-05T06:38:25.802Z,8.93
2022-09-05T06:44:08.786Z,8.00
2022-09-05T06:47:23.700Z,9.38
2022-09-05T06:50:24.233Z,9.07
2022-09-05T06:53:34.043Z,9.82
2022-09-05T06:56:33.912Z,8.18
2022-09-05T07:00:15.565Z,8.82
2022-09-05T07:03:26.682Z,7.78
2022-09-05T07:07:01.127Z,9.23
2022-09-05T07:10:16.601Z,7.88
2022-09-05T07:13:09.778Z,7.25
2022-09-05T07:16:01.868Z,6.78
2022-09-05T07:19:03.242Z,8.07
2022-09-05T07:22:46.367Z,7.30
2022-09-05T07:25:26.142Z,6.50
2022-09-05T07:28:28.209Z,6.55
2022-09-05T07:31:27.638Z,6.90
2022-09-05T07:34:32.782Z,6.20
2022-09-05T07:37:21.909Z,5.90
2022-09-05T07:40:26.316Z,5.38
2022-09-05T07:43:30.801Z,5.03
2022-09-05T07:46:15.905Z,5.22
2022-09-05T07:49:56.596Z,5.15
2022-09-05T07:56:49.543Z,5.45
2022-09-05T07:57:07.805Z,5.07
2022-09-05T07:59:14.792Z,4.88
2022-09-05T08:02:02.854Z,4.68
2022-09-05T08:04:45.887Z,4.60
2022-09-05T08:07:49.519Z,4.70
2022-09-05T08:11:23.771Z,4.57
2022-09-05T08:14:43.465Z,4.40
2022-09-05T08:17:34.802Z,3.83
2022-09-05T08:20:46.913Z,3.97
2022-09-05T08:23:51.801Z,3.70
2022-09-05T08:26:38.361Z,3.50
2022-09-05T08:29:43.798Z,3.70
2022-09-05T08:32:35.204Z,3.33
2022-09-05T08:35:26.812Z,3.72
2022-09-05T08:38:16.938Z,3.30
2022-09-05T08:41:10.820Z,3.20
2022-09-05T08:46:39.567Z,3.10
2022-09-05T08:47:21.819Z,3.15
2022-09-05T08:50:08.180Z,2.97
2022-09-05T08:53:18.687Z,2.97
2022-09-05T08:56:25.932Z,2.78
2022-09-05T08:59:33.803Z,2.60
2022-09-05T09:02:55.904Z,2.60
2022-09-05T09:06:12.210Z,2.50
2022-09-05T09:09:19.068Z,2.65
2022-09-05T09:12:18.799Z,2.60
2022-09-05T09:15:13.829Z,2.45
2022-09-05T09:18:10.061Z,2.47
2022-09-05T09:21:24.822Z,2.20
2022-09-05T09:24:36.907Z,2.30
2022-09-05T09:28:43.706Z,2.33
2022-09-05T09:31:33.835Z,2.25
2022-09-05T09:34:32.970Z,2.05
2022-09-05T09:38:05.810Z,2.30
2022-09-05T09:41:04.872Z,2.00
2022-09-05T09:44:07.828Z,2.03
2022-09-05T09:46:56.874Z,2.30
2022-09-05T09:49:46.815Z,2.03
2022-09-05T09:52:40.825Z,1.92
2022-09-05T09:56:08.825Z,2.10
2022-09-05T09:59:23.846Z,1.83
2022-09-05T10:03:18.487Z,2.00
2022-09-05T10:10:53.063Z,1.90
2022-09-05T10:10:55.639Z,2.10
2022-09-05T10:13:08.135Z,1.75
2022-09-05T10:16:07.530Z,1.73
2022-09-05T10:22:58.004Z,1.90
2022-09-05T10:26:03.846Z,1.73
2022-09-05T10:29:38.506Z,1.65
2022-09-05T10:35:42.895Z,1.70
2022-09-05T10:38:40.369Z,1.63
2022-09-05T10:41:25.828Z,1.60
2022-09-05T10:44:13.933Z,1.50
2022-09-05T10:47:25.902Z,1.50
2022-09-05T10:50:12.882Z,1.70
2022-09-05T10:53:10.844Z,1.65
2022-09-05T10:56:18.892Z,1.75
2022-09-05T11:02:19.197Z,1.70
2022-09-05T11:02:39.662Z,1.60
2022-09-05T11:05:34.913Z,1.73
2022-09-05T11:08:39.006Z,1.70
2022-09-05T11:11:34.788Z,1.50
2022-09-05T11:14:56.859Z,1.70
2022-09-05T11:17:43.119Z,1.70
2022-09-05T11:20:43.846Z,1.50
2022-09-05T11:23:43.328Z,1.58
2022-09-05T11:27:23.563Z,1.52
2022-09-05T11:29:58.950Z,1.50
2022-09-05T11:39:53.152Z,1.60
2022-09-05T11:43:10.923Z,1.58
2022-09-05T11:46:30.081Z,1.50
2022-09-05T11:49:42.871Z,1.38
2022-09-05T11:52:47.852Z,1.50
2022-09-05T11:56:03.531Z,1.45
2022-09-05T11:59:09.857Z,1.60
2022-09-05T12:02:33.373Z,1.63
2022-09-05T12:05:59.590Z,1.42
2022-09-05T12:08:47.905Z,1.60
2022-09-05T12:12:39.101Z,1.48
2022-09-05T12:18:51.938Z,1.40
2022-09-05T12:22:10.117Z,1.60
2022-09-05T12:25:26.595Z,1.63
2022-09-05T12:29:27.477Z,1.52
2022-09-05T12:32:41.782Z,1.60
2022-09-05T12:36:10.928Z,1.58
2022-09-05T12:40:46.143Z,1.58
2022-09-05T12:41:44.903Z,1.60
2022-09-05T12:42:10.545Z,1.55
2022-09-05T12:44:44.489Z,1.52
2022-09-05T12:47:30.105Z,1.52
2022-09-05T12:50:25.880Z,1.80
2022-09-05T12:53:25.863Z,1.70
2022-09-05T12:58:17.218Z,1.63
2022-09-05T13:02:56.721Z,1.70
2022-09-05T13:03:09.385Z,1.50
2022-09-05T13:06:26.144Z,1.70
2022-09-05T13:09:23.609Z,1.67
2022-09-05T13:15:00.653Z,1.83
2022-09-05T13:15:45.916Z,1.85
2022-09-05T13:18:37.392Z,1.65
2022-09-05T13:21:32.909Z,1.77
2022-09-05T13:24:22.102Z,2.00
2022-09-05T13:27:35.889Z,1.80
2022-09-05T13:32:08.901Z,1.90
2022-09-05T13:38:08.369Z,2.00
2022-09-05T13:38:10.676Z,1.67
2022-09-05T13:40:02.356Z,1.90
2022-09-05T13:42:56.898Z,1.70
2022-09-05T13:46:22.966Z,1.80
2022-09-05T13:52:29.945Z,1.75
2022-09-05T13:55:30.915Z,1.70
2022-09-05T13:58:12.930Z,1.77
2022-09-05T14:01:37.949Z,1.70
2022-09-05T14:05:07.409Z,1.85
2022-09-05T14:08:09.286Z,1.77
2022-09-05T14:11:08.890Z,2.00
2022-09-05T14:13:58.695Z,1.95
2022-09-05T14:16:56.022Z,1.80
2022-09-05T14:19:59.655Z,1.80
2022-09-05T14:23:12.889Z,1.80
2022-09-05T14:26:00.061Z,1.65
2022-09-05T14:28:52.901Z,1.90
2022-09-05T14:37:45.690Z,1.88
2022-09-05T14:37:53.549Z,1.80
2022-09-05T14:38:46.909Z,2.03
2022-09-05T14:42:07.621Z,1.80
2022-09-05T14:45:37.017Z,1.80
2022-09-05T14:48:20.057Z,2.03
2022-09-05T14:51:39.316Z,2.20
2022-09-05T15:02:43.606Z,1.88
2022-09-05T15:02:52.811Z,1.90
2022-09-05T15:04:37.256Z,1.75
2022-09-05T15:07:22.441Z,1.90
2022-09-05T15:12:16.258Z,2.00
2022-09-05T15:13:40.008Z,1.90
2022-09-05T15:16:21.936Z,1.95
2022-09-05T15:19:02.524Z,2.00
2022-09-05T15:21:50.904Z,1.95
2022-09-05T15:24:31.591Z,1.70
2022-09-05T15:27:17.905Z,2.00
2022-09-05T15:30:06.495Z,1.88
2022-09-05T15:32:50.604Z,1.60
2022-09-05T15:35:44.080Z,1.67
2022-09-05T15:38:55.897Z,1.63
2022-09-05T15:41:43.989Z,1.63
2022-09-05T15:44:53.303Z,1.63
2022-09-05T15:47:43.962Z,1.73
2022-09-05T15:50:25.893Z,1.70
2022-09-05T15:53:18.927Z,1.80
2022-09-05T15:56:00.921Z,1.80
2022-09-05T15:59:00.926Z,1.80
2022-09-05T16:02:00.423Z,1.83
2022-09-05T16:10:33.560Z,2.05
2022-09-05T16:10:35.321Z,1.90
2022-09-05T16:12:09.276Z,2.08
2022-09-05T16:15:14.800Z,2.10
2022-09-05T16:23:14.351Z,1.83
2022-09-05T16:23:19.562Z,2.38
2022-09-05T16:24:58.262Z,2.00
2022-09-05T16:27:52.908Z,2.17
2022-09-05T16:30:44.976Z,2.10
2022-09-05T16:33:34.922Z,2.05
2022-09-05T16:36:21.028Z,2.15
2022-09-05T16:39:12.924Z,2.08
2022-09-05T16:42:00.979Z,1.90
2022-09-05T16:45:06.929Z,1.70
2022-09-05T16:48:24.917Z,1.98
2022-09-05T16:51:35.463Z,1.83
2022-09-05T16:54:41.916Z,2.00
2022-09-05T16:57:33.933Z,2.00
2022-09-05T17:00:22.926Z,2.03
2022-09-05T17:03:40.978Z,2.20
2022-09-05T17:06:41.398Z,1.90
2022-09-05T17:09:29.784Z,2.25
2022-09-05T17:12:23.920Z,2.20
2022-09-05T17:15:23.053Z,2.22
2022-09-05T17:18:20.120Z,1.90
2022-09-05T17:21:46.919Z,2.03
2022-09-05T17:29:16.161Z,2.05
2022-09-05T17:29:28.938Z,2.00
2022-09-05T17:31:50.846Z,2.00
2022-09-05T17:33:52.265Z,1.90
2022-09-05T17:37:00.940Z,1.92
2022-09-05T17:40:34.914Z,1.92
2022-09-05T17:43:41.952Z,1.92
2022-09-05T17:46:31.511Z,2.10
2022-09-05T17:49:20.443Z,2.00
2022-09-05T17:52:02.016Z,2.00
2022-09-05T17:54:50.514Z,2.00
2022-09-05T17:57:47.937Z,2.20
2022-09-05T18:00:45.423Z,2.20
2022-09-05T18:03:51.938Z,1.90
2022-09-05T18:06:43.514Z,2.13
2022-09-05T18:09:47.991Z,2.20
2022-09-05T18:13:12.758Z,2.00
2022-09-05T18:15:47.944Z,1.95
2022-09-05T18:19:33.121Z,1.90
2022-09-05T18:25:33.362Z,1.92
2022-09-05T18:28:35.054Z,2.10
2022-09-05T18:31:45.322Z,2.25
2022-09-05T18:34:40.002Z,1.80
2022-09-05T18:37:41.933Z,2.13
2022-09-05T18:40:53.211Z,2.13
2022-09-05T18:44:12.095Z,1.88
2022-09-05T18:47:04.965Z,1.73
2022-09-05T18:50:23.817Z,2.22
2022-09-05T18:53:09.490Z,2.00
2022-09-05T18:56:14.083Z,2.13
2022-09-05T18:59:10.674Z,2.42
2022-09-05T19:02:08.042Z,2.10
2022-09-05T19:05:15.884Z,2.10
2022-09-05T19:08:06.229Z,2.38
2022-09-05T19:10:58.967Z,2.17
2022-09-05T19:13:43.654Z,2.35
2022-09-05T19:16:47.801Z,2.10
2022-09-05T19:19:31.302Z,2.30
2022-09-05T19:23:09.216Z,2.10
2022-09-05T19:25:37.986Z,2.47
2022-09-05T19:32:37.477Z,2.40
2022-09-05T19:36:56.792Z,2.47
2022-09-05T19:37:09.793Z,2.33
2022-09-05T19:37:54.567Z,2.15
2022-09-05T19:47:35.805Z,3.10
2022-09-05T19:47:36.580Z,2.38
2022-09-05T19:47:48.705Z,2.33
2022-09-05T19:50:12.961Z,2.60
2022-09-05T19:53:12.130Z,2.67
2022-09-05T19:55:53.029Z,2.58
2022-09-05T19:58:33.795Z,2.42
2022-09-05T20:01:27.396Z,2.50
2022-09-05T20:04:07.581Z,2.35
2022-09-05T20:06:53.966Z,2.40
2022-09-05T20:09:50.018Z,2.30
2022-09-05T20:12:38.979Z,2.38
2022-09-05T20:15:51.987Z,2.17
2022-09-05T20:18:47.038Z,1.90
2022-09-05T20:21:36.958Z,2.22
2022-09-05T20:24:23.993Z,2.28
2022-09-05T20:27:04.945Z,1.98
2022-09-05T20:30:15.958Z,2.30
2022-09-05T20:33:13.305Z,2.20
2022-09-05T20:39:27.897Z,2.15
2022-09-05T20:43:20.654Z,2.30
2022-09-05T20:43:21.188Z,2.60
2022-09-05T20:45:12.978Z,2.38
2022-09-05T20:52:58.515Z,2.20
2022-09-05T20:54:21.139Z,2.50
2022-09-05T20:54:41.326Z,2.40
2022-09-05T20:57:33.989Z,4.30
2022-09-05T21:00:19.372Z,2.85
2022-09-05T21:03:09.348Z,3.08
2022-09-05T21:05:49.866Z,3.75
2022-09-05T21:08:47.968Z,2.80
2022-09-05T21:11:38.029Z,3.13
2022-09-05T21:14:23.965Z,2.95
2022-09-05T21:17:15.375Z,2.72
2022-09-05T21:20:08.328Z,3.05
2022-09-05T21:22:55.997Z,2.55
2022-09-05T21:25:43.945Z,3.88
2022-09-05T21:28:36.922Z,2.78
2022-09-05T21:31:19.008Z,2.67
2022-09-05T21:34:02.775Z,2.60
2022-09-05T21:37:06.528Z,2.65
2022-09-05T21:40:00.199Z,2.85
2022-09-05T21:44:49.163Z,2.45
2022-09-05T21:47:50.092Z,2.40
2022-09-05T21:48:48.094Z,2.58
2022-09-05T21:51:41.046Z,2.25
2022-09-05T21:59:13.961Z,2.63
2022-09-05T21:59:24.055Z,2.45
2022-09-05T22:00:40.985Z,2.83
2022-09-05T22:03:28.144Z,2.50
2022-09-05T22:06:08.983Z,3.10
2022-09-05T22:09:12.664Z,2.55
2022-09-05T22:11:59.989Z,2.53
2022-09-05T22:14:41.596Z,2.50
2022-09-05T22:17:28.986Z,2.50
2022-09-05T22:20:17.984Z,2.40
2022-09-05T22:23:05.005Z,2.78
2022-09-05T22:25:45.607Z,2.72
2022-09-05T22:28:38.080Z,2.85
2022-09-05T22:31:19.695Z,2.65
2022-09-05T22:34:05.970Z,2.50
2022-09-05T22:36:46.521Z,2.85
2022-09-05T22:39:36.880Z,2.55
2022-09-05T22:42:18.545Z,2.60
2022-09-05T22:45:05.004Z,2.60
2022-09-05T22:47:52.002Z,2.75
2022-09-05T22:50:40.011Z,2.72
2022-09-05T22:53:20.474Z,2.58
2022-09-05T22:56:15.989Z,2.70
2022-09-05T22:59:03.074Z,2.50
2022-09-05T23:01:57.071Z,2.60
2022-09-05T23:04:44.009Z,2.33
2022-09-05T23:07:24.108Z,2.35
2022-09-05T23:10:12.017Z,2.20
2022-09-05T23:12:52.034Z,2.58
2022-09-05T23:15:39.053Z,2.60
2022-09-05T23:18:19.089Z,2.60
2022-09-05T23:21:18.010Z,2.50
2022-09-05T23:23:58.093Z,2.33
2022-09-05T23:26:45.005Z,2.22
2022-09-05T23:29:25.058Z,2.65
2022-09-05T23:32:12.002Z,2.42
2022-09-05T23:34:59.024Z,2.30
2022-09-05T23:37:52.235Z,2.45
2022-09-05T23:40:32.030Z,2.42
2022-09-05T23:43:19.005Z,2.50
2022-09-05T23:46:06.067Z,2.80
2022-09-05T23:48:53.004Z,2.38
2022-09-05T23:51:40.007Z,2.63
2022-09-05T23:54:20.506Z,2.50
2022-09-05T23:57:07.002Z,2.50
2022-09-05T23:59:47.503Z,2.42
